Flight Track Log - Related Links

Times and Time Zones

All times are in EDT time to prevent confusion due to time zone crossing. See the TRS460 flight status page for this flight to view local times or setup timezone preferences in your user account.

Time Position Orientation Groundspeed Altitude Reporting Facility
EDT Latitude Longitude Course Direction KTS MPH feet Rate Location/Type
Thu 05:57:29 PM 42.8300 -85.4772 124° Southeast 176 203 2,900  Level Chicago Center
Thu 05:58:31 PM 42.7961 -85.4092 124° Southeast 207 238 4,500 1,839 Climbing Chicago Center
Thu 05:59:33 PM 42.7542 -85.3278 125° Southeast 250 288 6,700 2,129 Climbing Chicago Center
Thu 06:00:35 PM 42.7103 -85.2425 125° Southeast 269 310 8,900 1,935 Climbing Chicago Center
Thu 06:01:37 PM 42.6639 -85.1519 125° Southeast 286 329 10,700 1,597 Climbing Chicago Center
Thu 06:02:39 PM 42.6164 -85.0139 115° Southeast 328 377 12,200 1,645 Climbing Chicago Center
Thu 06:03:41 PM 42.5733 -84.8906 115° Southeast 354 407 14,100 1,790 Climbing Chicago Center
Thu 06:04:43 PM 42.5278 -84.7625 116° Southeast 371 427 15,900 1,742 Climbing Chicago Center
Thu 06:05:45 PM 42.4806 -84.6317 116° Southeast 383 441 17,700 1,646 Climbing Chicago Center
Thu 06:06:36 PM 42.4331 -84.5022 116° Southeast 385 443 19,000 1,730 Climbing Cleveland Center
Thu 06:07:36 PM 42.3792 -84.3642 118° Southeast 401 461 20,900 1,850 Climbing Cleveland Center
Thu 06:08:36 PM 42.3275 -84.2206 116° Southeast 412 474 22,700 1,650 Climbing Cleveland Center
Thu 06:09:36 PM 42.2739 -84.0742 116° Southeast 423 487 24,200 1,400 Climbing Cleveland Center
Thu 06:10:36 PM 42.2047 -83.9414 125° Southeast 428 493 25,500 1,200 Climbing Cleveland Center
Thu 06:11:36 PM 42.1206 -83.8194 133° Southeast 433 498 26,600 1,100 Climbing Cleveland Center
Thu 06:12:36 PM 42.0467 -83.7039 131° Southeast 448 516 27,700 1,150 Climbing Cleveland Center
Thu 06:13:36 PM 41.9606 -83.5767 132° Southeast 453 521 28,900 1,150 Climbing Cleveland Center
Thu 06:14:36 PM 41.8761 -83.4528 132° Southeast 453 521 30,000 1,350 Climbing Cleveland Center
Thu 06:15:36 PM 41.7936 -83.3294 132° Southeast 453 521 31,600 1,400 Climbing Cleveland Center
Thu 06:16:36 PM 41.7111 -83.2061 132° Southeast 453 521 32,800 700 Climbing Cleveland Center
Thu 06:17:36 PM 41.6203 -83.0747 133° Southeast 447 514 33,000 100 Climbing Cleveland Center
Thu 06:18:36 PM 41.5414 -82.9553 131° Southeast 436 502 33,000  Level Cleveland Center
Thu 06:19:36 PM 41.4583 -82.8386 134° Southeast 436 502 33,000  Level Cleveland Center
Thu 06:20:36 PM 41.3731 -82.7167 133° Southeast 436 502 33,000  Level Cleveland Center
Thu 06:21:36 PM 41.2919 -82.5978 132° Southeast 436 502 33,000  Level Cleveland Center
Thu 06:22:36 PM 41.2103 -82.4819 133° Southeast 430 495 33,000  Level Cleveland Center
Thu 06:23:36 PM 41.1269 -82.3611 132° Southeast 435 501 33,000  Level Cleveland Center
Thu 06:24:36 PM 41.0514 -82.2544 133° Southeast 435 501 33,000  Level Cleveland Center
Thu 06:25:36 PM 40.9822 -82.1206 124° Southeast 435 501 33,000  Level Cleveland Center
Thu 06:26:36 PM 40.9111 -81.9844 125° Southeast 446 513 33,000  Level Cleveland Center
Thu 06:27:36 PM 40.8397 -81.8456 124° Southeast 452 520 33,000  Level Cleveland Center
Thu 06:28:36 PM 40.7683 -81.7072 124° Southeast 457 526 33,000  Level Cleveland Center
Thu 06:29:36 PM 40.6967 -81.5744 125° Southeast 457 526 33,000  Level Cleveland Center
Thu 06:30:36 PM 40.6225 -81.4367 125° Southeast 457 526 33,000  Level Cleveland Center
Thu 06:31:36 PM 40.5464 -81.2881 124° Southeast 457 526 33,000  Level Cleveland Center
Thu 06:32:36 PM 40.4742 -81.1536 125° Southeast 457 526 33,000  Level Cleveland Center
Thu 06:33:36 PM 40.4167 -81.0031 117° Southeast 457 526 33,000  Level Cleveland Center
Thu 06:34:36 PM 40.3586 -80.8556 117° Southeast 457 526 33,000  Level Cleveland Center
Thu 06:35:36 PM 40.3006 -80.7028 116° Southeast 457 526 33,000  Level Cleveland Center
Thu 06:36:36 PM 40.2422 -80.5558 117° Southeast 457 526 33,000  Level Cleveland Center
Thu 06:37:36 PM 40.1900 -80.4172 116° Southeast 462 532 33,000  Level Cleveland Center
Thu 06:38:36 PM 40.1208 -80.2544 119° Southeast 467 537 33,000  Level Cleveland Center
Thu 06:39:36 PM 40.0642 -80.1056 116° Southeast 455 524 33,000  Level Cleveland Center
Thu 06:40:36 PM 40.0133 -79.9678 116° Southeast 455 524 33,000  Level Cleveland Center
Thu 06:41:36 PM 39.9542 -79.8194 117° Southeast 455 524 33,000  Level Cleveland Center
Thu 06:44:00 PM 39.8139 -79.4681 117° Southeast 470 541 33,000 -713 Level Washington Center
Thu 06:44:58 PM 39.7581 -79.3219 116° Southeast 465 535 30,600 -3,076 Descending Washington Center
Thu 06:45:59 PM 39.6981 -79.1758 118° Southeast 460 529 26,900 -2,754 Descending Washington Center
Thu 06:47:00 PM 39.6503 -79.0225 112° Southeast 460 529 25,000 -1,513 Descending Washington Center
Thu 06:47:58 PM 39.6094 -78.8428 106° East 465 535 23,900 -2,593 Descending Washington Center
Thu 06:48:58 PM 39.5739 -78.6878 107° East 465 535 19,900 -2,777 Descending Washington Center
Thu 06:49:59 PM 39.5403 -78.5383 106° East 446 513 18,300 -1,279 Descending Washington Center
Thu 06:51:00 PM 39.5103 -78.3944 105° East 427 491 17,300 -1,140 Descending Washington Center
Thu 06:52:00 PM 39.4761 -78.2506 107° East 417 480 16,000 -1,160 Descending Washington Center
Thu 06:52:59 PM 39.4497 -78.1097 104° East 407 468 15,000 -1,008 Descending Washington Center
Thu 06:53:59 PM 39.4506 -77.9700 90° East 392 451 14,000 -744 Descending Washington Center
Thu 06:55:00 PM 39.4486 -77.8572 91° East 385 443 13,500 -595 Descending Washington Center
Thu 06:56:00 PM 39.4472 -77.7067 91° East 385 443 12,800 -750 Descending Washington Center
Thu 06:57:00 PM 39.4453 -77.5694 91° East 385 443 12,000 -864 Descending Washington Center
Thu 06:57:58 PM 39.4453 -77.4486 90° East 367 422 11,100 -556 Descending Washington Center
Thu 06:58:48 PM 39.4500 -77.3500 86° East 283 326 11,000 -58 Descending Potomac TRACON
Thu 06:59:42 PM 39.4667 -77.2667 75° East 251 289 11,000 -750 Level Potomac TRACON
Thu 07:00:48 PM 39.4667 -77.1667 90° East 237 273 9,500 -1,438 Descending Potomac TRACON
Thu 07:01:43 PM 39.4833 -77.1000 72° East 235 270 8,100 -744 Descending Potomac TRACON
Thu 07:02:49 PM 39.5000 -77.0167 75° East 232 267 8,000 -48 Descending Potomac TRACON
Thu 07:03:49 PM 39.5000 -76.9333 90° East 230 265 8,000 -650 Level Potomac TRACON
Thu 07:04:49 PM 39.4667 -76.8667 123° Southeast 234 269 6,700 -1,421 Descending Potomac TRACON
Thu 07:05:43 PM 39.4167 -76.8833 194° South 238 274 5,300 -1,421 Descending Potomac TRACON
Thu 07:06:43 PM 39.3667 -76.9500 226° Southwest 231 266 4,000 -650 Descending Potomac TRACON
Thu 07:07:43 PM 39.3167 -76.9333 166° South 220 253 4,000  Level Potomac TRACON
Thu 07:08:43 PM 39.2667 -76.9667 207° Southwest 197 227 4,000  Level Potomac TRACON
Thu 07:09:43 PM 39.2333 -77.0000 218° Southwest 188 216 4,000 -397 Level Potomac TRACON
Thu 07:10:44 PM 39.1833 -77.0167 194° South 187 215 3,200 -992 Descending Potomac TRACON
Thu 07:11:44 PM 39.1833 -76.9667 90° East 169 194 2,000 -600 Descending Potomac TRACON
Thu 07:12:44 PM 39.1833 -76.9000 90° East 166 191 2,000  Level Potomac TRACON
Thu 07:13:44 PM 39.1833 -76.8500 90° East 167 192 2,000 -150 Level Potomac TRACON
Thu 07:14:44 PM 39.1833 -76.7833 90° East 165 190 1,700 -526 Descending Potomac TRACON
Thu 07:15:38 PM 39.1833 -76.7333 90° East 136 157 1,000 -778 Descending Potomac TRACON

Login

Don't have an account? Register now (free) for customized features, flight alerts, and more!